sensor_id;sensor_type;location;lat;lon;timestamp;temperature;humidity
63219;DHT22;49320;52.512;13.448;2022-10-26T00:01:12;14.10;87.90
63219;DHT22;49320;52.512;13.448;2022-10-26T00:03:42;14.00;88.20
63219;DHT22;49320;52.512;13.448;2022-10-26T00:06:15;14.00;88.00
63219;DHT22;49320;52.512;13.448;2022-10-26T00:08:45;14.00;88.00
63219;DHT22;49320;52.512;13.448;2022-10-26T00:11:13;14.00;87.90
63219;DHT22;49320;52.512;13.448;2022-10-26T00:13:41;14.00;88.00
63219;DHT22;49320;52.512;13.448;2022-10-26T00:16:14;14.00;88.10
63219;DHT22;49320;52.512;13.448;2022-10-26T00:18:43;14.00;88.40
63219;DHT22;49320;52.512;13.448;2022-10-26T00:21:11;13.90;88.10
63219;DHT22;49320;52.512;13.448;2022-10-26T00:23:38;13.90;88.30
63219;DHT22;49320;52.512;13.448;2022-10-26T00:26:06;13.90;88.20
63219;DHT22;49320;52.512;13.448;2022-10-26T00:28:34;13.90;88.30
63219;DHT22;49320;52.512;13.448;2022-10-26T00:31:03;13.90;88.30
63219;DHT22;49320;52.512;13.448;2022-10-26T00:33:31;13.90;88.40
63219;DHT22;49320;52.512;13.448;2022-10-26T00:35:59;13.90;88.30
63219;DHT22;49320;52.512;13.448;2022-10-26T00:38:26;14.00;88.40
63219;DHT22;49320;52.512;13.448;2022-10-26T00:40:53;13.90;88.30
63219;DHT22;49320;52.512;13.448;2022-10-26T00:45:49;13.80;88.30
63219;DHT22;49320;52.512;13.448;2022-10-26T00:48:29;13.70;88.40
63219;DHT22;49320;52.512;13.448;2022-10-26T00:51:06;13.90;89.00
63219;DHT22;49320;52.512;13.448;2022-10-26T00:53:36;13.80;88.70
63219;DHT22;49320;52.512;13.448;2022-10-26T00:56:04;13.80;88.50
63219;DHT22;49320;52.512;13.448;2022-10-26T00:58:31;13.80;88.60
63219;DHT22;49320;52.512;13.448;2022-10-26T01:00:59;13.70;88.60
63219;DHT22;49320;52.512;13.448;2022-10-26T01:03:28;13.70;88.60
63219;DHT22;49320;52.512;13.448;2022-10-26T01:05:57;13.70;88.80
63219;DHT22;49320;52.512;13.448;2022-10-26T01:08:24;13.80;88.80
63219;DHT22;49320;52.512;13.448;2022-10-26T01:10:55;13.80;88.90
63219;DHT22;49320;52.512;13.448;2022-10-26T01:13:25;13.70;88.90
63219;DHT22;49320;52.512;13.448;2022-10-26T01:22:24;13.70;89.40
63219;DHT22;49320;52.512;13.448;2022-10-26T01:27:46;13.80;89.20
63219;DHT22;49320;52.512;13.448;2022-10-26T01:33:13;13.60;89.30
63219;DHT22;49320;52.512;13.448;2022-10-26T01:36:07;13.60;89.10
63219;DHT22;49320;52.512;13.448;2022-10-26T01:44:30;13.60;89.00
63219;DHT22;49320;52.512;13.448;2022-10-26T01:47:06;13.50;89.30
63219;DHT22;49320;52.512;13.448;2022-10-26T01:49:38;13.40;88.90
63219;DHT22;49320;52.512;13.448;2022-10-26T01:52:09;13.40;89.00
63219;DHT22;49320;52.512;13.448;2022-10-26T01:54:36;13.50;89.10
63219;DHT22;49320;52.512;13.448;2022-10-26T01:57:11;13.40;89.00
63219;DHT22;49320;52.512;13.448;2022-10-26T01:59:56;13.30;89.20
63219;DHT22;49320;52.512;13.448;2022-10-26T02:02:44;13.40;88.50
63219;DHT22;49320;52.512;13.448;2022-10-26T02:05:59;13.40;89.40
63219;DHT22;49320;52.512;13.448;2022-10-26T02:09:15;13.40;89.60
63219;DHT22;49320;52.512;13.448;2022-10-26T02:11:51;13.40;89.90
63219;DHT22;49320;52.512;13.448;2022-10-26T02:14:29;13.30;89.20
63219;DHT22;49320;52.512;13.448;2022-10-26T02:17:10;13.30;89.40
63219;DHT22;49320;52.512;13.448;2022-10-26T02:19:56;13.30;89.30
63219;DHT22;49320;52.512;13.448;2022-10-26T02:22:41;13.30;89.60
63219;DHT22;49320;52.512;13.448;2022-10-26T02:25:31;13.30;89.60
63219;DHT22;49320;52.512;13.448;2022-10-26T02:28:04;13.30;89.40
63219;DHT22;49320;52.512;13.448;2022-10-26T02:30:34;13.20;89.30
63219;DHT22;49320;52.512;13.448;2022-10-26T02:33:04;13.20;89.30
63219;DHT22;49320;52.512;13.448;2022-10-26T02:35:35;13.20;89.40
63219;DHT22;49320;52.512;13.448;2022-10-26T02:38:09;13.20;89.40
63219;DHT22;49320;52.512;13.448;2022-10-26T02:40:38;13.20;89.60
63219;DHT22;49320;52.512;13.448;2022-10-26T02:43:09;13.20;89.40
63219;DHT22;49320;52.512;13.448;2022-10-26T02:45:51;13.20;89.60
63219;DHT22;49320;52.512;13.448;2022-10-26T02:48:22;13.20;89.90
63219;DHT22;49320;52.512;13.448;2022-10-26T02:51:10;13.10;89.50
63219;DHT22;49320;52.512;13.448;2022-10-26T02:53:48;13.10;90.00
63219;DHT22;49320;52.512;13.448;2022-10-26T02:56:24;13.10;89.70
63219;DHT22;49320;52.512;13.448;2022-10-26T02:59:01;13.10;89.70
63219;DHT22;49320;52.512;13.448;2022-10-26T03:01:32;13.00;89.60
63219;DHT22;49320;52.512;13.448;2022-10-26T03:04:00;13.00;89.60
63219;DHT22;49320;52.512;13.448;2022-10-26T03:06:27;13.00;89.50
63219;DHT22;49320;52.512;13.448;2022-10-26T03:08:54;13.00;89.50
63219;DHT22;49320;52.512;13.448;2022-10-26T03:11:22;13.00;89.60
63219;DHT22;49320;52.512;13.448;2022-10-26T03:13:48;13.00;89.70
63219;DHT22;49320;52.512;13.448;2022-10-26T03:16:15;12.90;89.70
63219;DHT22;49320;52.512;13.448;2022-10-26T03:18:42;12.90;89.70
63219;DHT22;49320;52.512;13.448;2022-10-26T03:21:09;12.90;89.70
63219;DHT22;49320;52.512;13.448;2022-10-26T03:23:35;12.90;89.80
63219;DHT22;49320;52.512;13.448;2022-10-26T03:26:02;12.90;89.80
63219;DHT22;49320;52.512;13.448;2022-10-26T03:28:29;12.70;89.80
63219;DHT22;49320;52.512;13.448;2022-10-26T03:30:55;12.90;89.90
63219;DHT22;49320;52.512;13.448;2022-10-26T03:33:22;12.80;90.00
63219;DHT22;49320;52.512;13.448;2022-10-26T03:35:55;12.80;90.00
63219;DHT22;49320;52.512;13.448;2022-10-26T03:38:23;12.90;90.00
63219;DHT22;49320;52.512;13.448;2022-10-26T03:40:49;12.80;90.00
63219;DHT22;49320;52.512;13.448;2022-10-26T03:43:16;12.80;90.00
63219;DHT22;49320;52.512;13.448;2022-10-26T03:45:44;12.80;90.00
63219;DHT22;49320;52.512;13.448;2022-10-26T03:48:11;12.80;90.00
63219;DHT22;49320;52.512;13.448;2022-10-26T03:50:38;12.80;90.00
63219;DHT22;49320;52.512;13.448;2022-10-26T03:53:05;12.80;90.00
63219;DHT22;49320;52.512;13.448;2022-10-26T03:55:32;12.80;90.00
63219;DHT22;49320;52.512;13.448;2022-10-26T03:57:59;12.70;90.00
63219;DHT22;49320;52.512;13.448;2022-10-26T04:00:26;12.80;90.00
63219;DHT22;49320;52.512;13.448;2022-10-26T04:02:55;12.80;90.10
63219;DHT22;49320;52.512;13.448;2022-10-26T04:05:25;12.60;90.10
63219;DHT22;49320;52.512;13.448;2022-10-26T04:07:59;12.80;90.10
63219;DHT22;49320;52.512;13.448;2022-10-26T04:10:29;12.70;90.20
63219;DHT22;49320;52.512;13.448;2022-10-26T04:12:57;12.80;90.10
63219;DHT22;49320;52.512;13.448;2022-10-26T04:15:27;12.80;90.10
63219;DHT22;49320;52.512;13.448;2022-10-26T04:17:59;12.80;90.10
63219;DHT22;49320;52.512;13.448;2022-10-26T04:20:28;12.70;90.20
63219;DHT22;49320;52.512;13.448;2022-10-26T04:23:00;12.70;90.10
63219;DHT22;49320;52.512;13.448;2022-10-26T04:25:29;12.70;90.20
63219;DHT22;49320;52.512;13.448;2022-10-26T04:28:00;12.70;90.20
63219;DHT22;49320;52.512;13.448;2022-10-26T04:30:28;12.60;90.20
63219;DHT22;49320;52.512;13.448;2022-10-26T04:32:55;12.70;90.20
63219;DHT22;49320;52.512;13.448;2022-10-26T04:35:22;12.60;90.10
63219;DHT22;49320;52.512;13.448;2022-10-26T04:37:49;12.70;90.20
63219;DHT22;49320;52.512;13.448;2022-10-26T04:40:16;12.70;90.20
63219;DHT22;49320;52.512;13.448;2022-10-26T04:42:44;12.70;90.20
63219;DHT22;49320;52.512;13.448;2022-10-26T04:45:14;12.70;90.30
63219;DHT22;49320;52.512;13.448;2022-10-26T04:47:41;12.70;90.30
63219;DHT22;49320;52.512;13.448;2022-10-26T04:50:10;12.70;90.20
63219;DHT22;49320;52.512;13.448;2022-10-26T04:52:38;12.70;90.30
63219;DHT22;49320;52.512;13.448;2022-10-26T04:55:06;12.70;90.20
63219;DHT22;49320;52.512;13.448;2022-10-26T04:57:34;12.70;90.30
63219;DHT22;49320;52.512;13.448;2022-10-26T05:00:03;12.70;90.30
63219;DHT22;49320;52.512;13.448;2022-10-26T05:02:30;12.60;90.30
63219;DHT22;49320;52.512;13.448;2022-10-26T05:04:57;12.70;90.30
63219;DHT22;49320;52.512;13.448;2022-10-26T05:07:24;12.70;90.30
63219;DHT22;49320;52.512;13.448;2022-10-26T05:09:51;12.70;90.30
63219;DHT22;49320;52.512;13.448;2022-10-26T05:12:18;12.60;90.20
63219;DHT22;49320;52.512;13.448;2022-10-26T05:14:45;12.60;90.20
63219;DHT22;49320;52.512;13.448;2022-10-26T05:17:12;12.60;90.50
63219;DHT22;49320;52.512;13.448;2022-10-26T05:19:39;12.70;90.20
63219;DHT22;49320;52.512;13.448;2022-10-26T05:22:06;12.70;90.20
63219;DHT22;49320;52.512;13.448;2022-10-26T05:24:32;12.60;90.20
63219;DHT22;49320;52.512;13.448;2022-10-26T05:26:59;12.60;90.20
63219;DHT22;49320;52.512;13.448;2022-10-26T05:29:26;12.60;90.50
63219;DHT22;49320;52.512;13.448;2022-10-26T05:31:53;12.60;90.10
63219;DHT22;49320;52.512;13.448;2022-10-26T05:34:20;12.50;90.10
63219;DHT22;49320;52.512;13.448;2022-10-26T05:36:46;12.50;90.10
63219;DHT22;49320;52.512;13.448;2022-10-26T05:39:13;12.50;90.10
63219;DHT22;49320;52.512;13.448;2022-10-26T05:41:40;12.50;90.10
63219;DHT22;49320;52.512;13.448;2022-10-26T05:44:07;12.40;90.10
63219;DHT22;49320;52.512;13.448;2022-10-26T05:46:33;12.40;90.10
63219;DHT22;49320;52.512;13.448;2022-10-26T05:49:00;12.40;90.20
63219;DHT22;49320;52.512;13.448;2022-10-26T05:51:27;12.30;90.10
63219;DHT22;49320;52.512;13.448;2022-10-26T05:53:53;12.40;90.20
63219;DHT22;49320;52.512;13.448;2022-10-26T05:56:39;12.40;90.20
63219;DHT22;49320;52.512;13.448;2022-10-26T05:59:15;12.40;90.40
63219;DHT22;49320;52.512;13.448;2022-10-26T06:02:08;12.30;90.30
63219;DHT22;49320;52.512;13.448;2022-10-26T06:04:42;12.30;90.40
63219;DHT22;49320;52.512;13.448;2022-10-26T06:07:15;12.30;90.20
63219;DHT22;49320;52.512;13.448;2022-10-26T06:09:45;12.30;90.20
63219;DHT22;49320;52.512;13.448;2022-10-26T06:12:13;12.30;90.20
63219;DHT22;49320;52.512;13.448;2022-10-26T06:14:45;12.30;90.20
63219;DHT22;49320;52.512;13.448;2022-10-26T06:23:25;12.30;90.40
63219;DHT22;49320;52.512;13.448;2022-10-26T06:26:28;12.30;90.50
63219;DHT22;49320;52.512;13.448;2022-10-26T06:29:13;12.30;90.20
63219;DHT22;49320;52.512;13.448;2022-10-26T06:31:52;12.30;90.20
63219;DHT22;49320;52.512;13.448;2022-10-26T06:34:27;12.30;90.10
63219;DHT22;49320;52.512;13.448;2022-10-26T06:36:59;12.40;90.40
63219;DHT22;49320;52.512;13.448;2022-10-26T06:39:29;12.20;90.30
63219;DHT22;49320;52.512;13.448;2022-10-26T06:42:01;12.20;90.30
63219;DHT22;49320;52.512;13.448;2022-10-26T06:44:28;12.20;90.20
63219;DHT22;49320;52.512;13.448;2022-10-26T06:47:17;12.20;90.30
63219;DHT22;49320;52.512;13.448;2022-10-26T06:50:10;12.30;90.50
63219;DHT22;49320;52.512;13.448;2022-10-26T06:52:54;12.30;90.40
63219;DHT22;49320;52.512;13.448;2022-10-26T06:55:33;12.30;90.40
63219;DHT22;49320;52.512;13.448;2022-10-26T06:58:10;12.30;90.40
63219;DHT22;49320;52.512;13.448;2022-10-26T07:00:41;12.20;90.40
63219;DHT22;49320;52.512;13.448;2022-10-26T07:03:10;12.30;90.40
63219;DHT22;49320;52.512;13.448;2022-10-26T07:05:36;12.20;90.30
63219;DHT22;49320;52.512;13.448;2022-10-26T07:08:04;12.30;90.30
63219;DHT22;49320;52.512;13.448;2022-10-26T07:10:31;12.30;90.40
63219;DHT22;49320;52.512;13.448;2022-10-26T07:13:00;12.30;90.40
63219;DHT22;49320;52.512;13.448;2022-10-26T07:15:27;12.30;90.40
63219;DHT22;49320;52.512;13.448;2022-10-26T07:17:53;12.30;90.40
63219;DHT22;49320;52.512;13.448;2022-10-26T07:20:21;12.30;90.40
63219;DHT22;49320;52.512;13.448;2022-10-26T07:22:52;12.40;90.40
63219;DHT22;49320;52.512;13.448;2022-10-26T07:25:21;12.40;90.50
63219;DHT22;49320;52.512;13.448;2022-10-26T07:27:49;12.40;90.50
63219;DHT22;49320;52.512;13.448;2022-10-26T07:30:17;12.40;90.50
63219;DHT22;49320;52.512;13.448;2022-10-26T07:32:44;12.40;90.50
63219;DHT22;49320;52.512;13.448;2022-10-26T07:35:10;12.50;90.50
63219;DHT22;49320;52.512;13.448;2022-10-26T07:37:37;12.60;90.50
63219;DHT22;49320;52.512;13.448;2022-10-26T07:40:05;12.60;90.60
63219;DHT22;49320;52.512;13.448;2022-10-26T07:42:33;12.60;90.50
63219;DHT22;49320;52.512;13.448;2022-10-26T07:45:03;12.70;90.50
63219;DHT22;49320;52.512;13.448;2022-10-26T07:47:30;12.70;90.50
63219;DHT22;49320;52.512;13.448;2022-10-26T07:49:56;12.80;90.50
63219;DHT22;49320;52.512;13.448;2022-10-26T07:52:23;12.80;90.40
63219;DHT22;49320;52.512;13.448;2022-10-26T07:54:50;12.80;90.40
63219;DHT22;49320;52.512;13.448;2022-10-26T07:57:17;12.90;90.40
63219;DHT22;49320;52.512;13.448;2022-10-26T07:59:44;12.90;90.40
63219;DHT22;49320;52.512;13.448;2022-10-26T08:02:10;12.90;90.30
63219;DHT22;49320;52.512;13.448;2022-10-26T08:04:37;13.00;90.30
63219;DHT22;49320;52.512;13.448;2022-10-26T08:07:04;13.00;90.30
63219;DHT22;49320;52.512;13.448;2022-10-26T08:09:31;13.10;90.30
63219;DHT22;49320;52.512;13.448;2022-10-26T08:11:57;13.10;90.30
63219;DHT22;49320;52.512;13.448;2022-10-26T08:14:24;13.10;90.30
63219;DHT22;49320;52.512;13.448;2022-10-26T08:16:51;13.20;90.30
63219;DHT22;49320;52.512;13.448;2022-10-26T08:19:18;13.20;90.30
63219;DHT22;49320;52.512;13.448;2022-10-26T08:21:45;13.20;90.20
63219;DHT22;49320;52.512;13.448;2022-10-26T08:24:12;13.30;90.20
63219;DHT22;49320;52.512;13.448;2022-10-26T08:26:40;13.30;90.20
63219;DHT22;49320;52.512;13.448;2022-10-26T08:29:07;13.30;90.10
63219;DHT22;49320;52.512;13.448;2022-10-26T08:31:34;13.40;90.10
63219;DHT22;49320;52.512;13.448;2022-10-26T08:34:01;13.40;90.40
63219;DHT22;49320;52.512;13.448;2022-10-26T08:36:29;13.50;90.10
63219;DHT22;49320;52.512;13.448;2022-10-26T08:38:56;13.50;90.10
63219;DHT22;49320;52.512;13.448;2022-10-26T08:41:35;13.50;90.00
63219;DHT22;49320;52.512;13.448;2022-10-26T08:46:52;13.60;90.00
63219;DHT22;49320;52.512;13.448;2022-10-26T08:52:25;13.70;90.00
63219;DHT22;49320;52.512;13.448;2022-10-26T08:54:59;13.80;90.00
63219;DHT22;49320;52.512;13.448;2022-10-26T08:57:38;13.80;90.00
63219;DHT22;49320;52.512;13.448;2022-10-26T09:00:14;13.80;90.10
63219;DHT22;49320;52.512;13.448;2022-10-26T09:02:43;13.90;90.10
63219;DHT22;49320;52.512;13.448;2022-10-26T09:05:18;13.90;90.00
63219;DHT22;49320;52.512;13.448;2022-10-26T09:10:56;14.10;90.20
63219;DHT22;49320;52.512;13.448;2022-10-26T09:13:51;14.10;90.10
63219;DHT22;49320;52.512;13.448;2022-10-26T09:22:52;14.40;90.10
63219;DHT22;49320;52.512;13.448;2022-10-26T09:25:38;14.30;90.00
63219;DHT22;49320;52.512;13.448;2022-10-26T09:28:15;14.50;90.00
63219;DHT22;49320;52.512;13.448;2022-10-26T09:30:45;14.60;90.00
63219;DHT22;49320;52.512;13.448;2022-10-26T09:33:16;14.50;89.90
63219;DHT22;49320;52.512;13.448;2022-10-26T09:35:51;14.70;90.00
63219;DHT22;49320;52.512;13.448;2022-10-26T09:41:51;14.90;90.00
63219;DHT22;49320;52.512;13.448;2022-10-26T09:44:38;14.90;90.00
63219;DHT22;49320;52.512;13.448;2022-10-26T09:50:01;15.10;90.00
63219;DHT22;49320;52.512;13.448;2022-10-26T09:52:41;15.20;90.00
63219;DHT22;49320;52.512;13.448;2022-10-26T09:55:11;15.30;89.80
63219;DHT22;49320;52.512;13.448;2022-10-26T09:57:42;15.30;89.90
63219;DHT22;49320;52.512;13.448;2022-10-26T10:00:14;15.40;89.80
63219;DHT22;49320;52.512;13.448;2022-10-26T10:02:44;15.50;89.80
63219;DHT22;49320;52.512;13.448;2022-10-26T10:05:28;15.60;89.80
63219;DHT22;49320;52.512;13.448;2022-10-26T10:08:24;15.70;89.70
63219;DHT22;49320;52.512;13.448;2022-10-26T10:10:58;15.80;89.60
63219;DHT22;49320;52.512;13.448;2022-10-26T10:13:32;15.90;89.50
63219;DHT22;49320;52.512;13.448;2022-10-26T10:18:34;16.10;89.20
63219;DHT22;49320;52.512;13.448;2022-10-26T10:21:02;16.20;89.10
63219;DHT22;49320;52.512;13.448;2022-10-26T10:23:35;16.30;88.80
63219;DHT22;49320;52.512;13.448;2022-10-26T10:26:11;16.40;88.40
63219;DHT22;49320;52.512;13.448;2022-10-26T10:28:39;16.50;88.30
63219;DHT22;49320;52.512;13.448;2022-10-26T10:31:22;16.60;88.20
63219;DHT22;49320;52.512;13.448;2022-10-26T10:33:54;16.70;87.70
63219;DHT22;49320;52.512;13.448;2022-10-26T10:36:22;16.80;87.80
63219;DHT22;49320;52.512;13.448;2022-10-26T10:38:52;16.90;87.70
63219;DHT22;49320;52.512;13.448;2022-10-26T10:41:30;17.00;87.50
63219;DHT22;49320;52.512;13.448;2022-10-26T10:46:48;17.20;86.90
63219;DHT22;49320;52.512;13.448;2022-10-26T10:49:22;17.30;86.90
63219;DHT22;49320;52.512;13.448;2022-10-26T10:51:54;17.40;86.40
63219;DHT22;49320;52.512;13.448;2022-10-26T10:54:34;17.40;86.20
63219;DHT22;49320;52.512;13.448;2022-10-26T10:57:15;17.60;85.60
63219;DHT22;49320;52.512;13.448;2022-10-26T11:00:03;17.60;85.50
63219;DHT22;49320;52.512;13.448;2022-10-26T11:08:51;17.90;84.20
63219;DHT22;49320;52.512;13.448;2022-10-26T11:14:31;18.10;83.20
63219;DHT22;49320;52.512;13.448;2022-10-26T11:17:19;18.10;82.80
63219;DHT22;49320;52.512;13.448;2022-10-26T11:19:56;18.20;83.10
63219;DHT22;49320;52.512;13.448;2022-10-26T11:22:36;18.30;82.70
63219;DHT22;49320;52.512;13.448;2022-10-26T11:25:27;18.30;82.50
63219;DHT22;49320;52.512;13.448;2022-10-26T11:28:33;18.40;81.40
63219;DHT22;49320;52.512;13.448;2022-10-26T11:31:11;18.50;81.20
63219;DHT22;49320;52.512;13.448;2022-10-26T11:33:53;18.50;81.60
63219;DHT22;49320;52.512;13.448;2022-10-26T11:36:29;18.60;81.20
63219;DHT22;49320;52.512;13.448;2022-10-26T11:39:08;18.60;81.40
63219;DHT22;49320;52.512;13.448;2022-10-26T11:42:25;18.70;80.70
63219;DHT22;49320;52.512;13.448;2022-10-26T11:45:00;18.70;81.20
63219;DHT22;49320;52.512;13.448;2022-10-26T11:47:41;18.70;80.60
63219;DHT22;49320;52.512;13.448;2022-10-26T11:50:32;18.80;79.90
63219;DHT22;49320;52.512;13.448;2022-10-26T11:53:08;18.80;79.30
63219;DHT22;49320;52.512;13.448;2022-10-26T11:55:40;18.90;79.90
63219;DHT22;49320;52.512;13.448;2022-10-26T11:58:12;18.90;80.30
63219;DHT22;49320;52.512;13.448;2022-10-26T12:00:48;19.00;79.90
63219;DHT22;49320;52.512;13.448;2022-10-26T12:03:26;19.00;78.90
63219;DHT22;49320;52.512;13.448;2022-10-26T12:05:56;19.00;79.10
63219;DHT22;49320;52.512;13.448;2022-10-26T12:08:39;19.00;79.40
63219;DHT22;49320;52.512;13.448;2022-10-26T12:16:55;19.10;78.30
63219;DHT22;49320;52.512;13.448;2022-10-26T12:19:46;19.20;78.40
63219;DHT22;49320;52.512;13.448;2022-10-26T12:22:18;19.20;77.50
63219;DHT22;49320;52.512;13.448;2022-10-26T12:32:52;19.30;76.90
63219;DHT22;49320;52.512;13.448;2022-10-26T12:35:41;19.30;77.20
63219;DHT22;49320;52.512;13.448;2022-10-26T12:43:33;19.50;76.20
63219;DHT22;49320;52.512;13.448;2022-10-26T12:48:45;19.50;75.90
63219;DHT22;49320;52.512;13.448;2022-10-26T13:00:00;19.60;75.20
63219;DHT22;49320;52.512;13.448;2022-10-26T13:02:48;19.60;74.60
63219;DHT22;49320;52.512;13.448;2022-10-26T13:05:27;19.70;74.80
63219;DHT22;49320;52.512;13.448;2022-10-26T13:08:05;19.70;75.60
63219;DHT22;49320;52.512;13.448;2022-10-26T13:10:35;19.70;75.10
63219;DHT22;49320;52.512;13.448;2022-10-26T13:13:07;19.70;75.10
63219;DHT22;49320;52.512;13.448;2022-10-26T13:18:08;19.70;75.10
63219;DHT22;49320;52.512;13.448;2022-10-26T13:21:11;19.70;75.00
63219;DHT22;49320;52.512;13.448;2022-10-26T13:23:46;19.70;73.80
63219;DHT22;49320;52.512;13.448;2022-10-26T13:26:28;19.80;74.60
63219;DHT22;49320;52.512;13.448;2022-10-26T13:28:58;19.80;74.60
63219;DHT22;49320;52.512;13.448;2022-10-26T13:34:08;19.80;74.30
63219;DHT22;49320;52.512;13.448;2022-10-26T13:39:38;19.80;73.60
63219;DHT22;49320;52.512;13.448;2022-10-26T13:42:17;19.80;74.10
63219;DHT22;49320;52.512;13.448;2022-10-26T13:45:07;19.80;73.90
63219;DHT22;49320;52.512;13.448;2022-10-26T13:48:04;19.80;73.80
63219;DHT22;49320;52.512;13.448;2022-10-26T13:50:53;19.80;73.70
63219;DHT22;49320;52.512;13.448;2022-10-26T13:53:50;19.80;73.80
63219;DHT22;49320;52.512;13.448;2022-10-26T13:56:43;19.80;73.60
63219;DHT22;49320;52.512;13.448;2022-10-26T13:59:21;19.80;73.60
63219;DHT22;49320;52.512;13.448;2022-10-26T14:02:05;19.80;74.40
63219;DHT22;49320;52.512;13.448;2022-10-26T14:04:45;19.80;73.70
63219;DHT22;49320;52.512;13.448;2022-10-26T14:07:25;19.80;74.40
63219;DHT22;49320;52.512;13.448;2022-10-26T14:09:59;19.80;73.70
63219;DHT22;49320;52.512;13.448;2022-10-26T14:12:26;19.70;74.30
63219;DHT22;49320;52.512;13.448;2022-10-26T14:15:01;19.80;74.40
63219;DHT22;49320;52.512;13.448;2022-10-26T14:17:32;19.80;74.00
63219;DHT22;49320;52.512;13.448;2022-10-26T14:19:59;19.80;74.40
63219;DHT22;49320;52.512;13.448;2022-10-26T14:22:28;19.90;74.40
63219;DHT22;49320;52.512;13.448;2022-10-26T14:24:59;19.80;74.30
63219;DHT22;49320;52.512;13.448;2022-10-26T14:27:31;19.80;73.80
63219;DHT22;49320;52.512;13.448;2022-10-26T14:30:24;20.00;73.90
63219;DHT22;49320;52.512;13.448;2022-10-26T14:32:53;19.90;73.40
63219;DHT22;49320;52.512;13.448;2022-10-26T14:35:27;19.90;74.20
63219;DHT22;49320;52.512;13.448;2022-10-26T14:38:03;19.90;73.80
63219;DHT22;49320;52.512;13.448;2022-10-26T14:40:36;19.90;73.70
63219;DHT22;49320;52.512;13.448;2022-10-26T14:43:04;19.90;74.00
63219;DHT22;49320;52.512;13.448;2022-10-26T14:45:33;19.90;73.90
63219;DHT22;49320;52.512;13.448;2022-10-26T14:48:25;19.90;73.90
63219;DHT22;49320;52.512;13.448;2022-10-26T14:51:00;19.90;73.80
63219;DHT22;49320;52.512;13.448;2022-10-26T14:53:34;19.90;73.60
63219;DHT22;49320;52.512;13.448;2022-10-26T14:56:04;19.90;73.70
63219;DHT22;49320;52.512;13.448;2022-10-26T14:58:43;19.90;73.70
63219;DHT22;49320;52.512;13.448;2022-10-26T15:01:24;19.90;73.80
63219;DHT22;49320;52.512;13.448;2022-10-26T15:04:02;19.80;73.10
63219;DHT22;49320;52.512;13.448;2022-10-26T15:06:38;19.90;73.30
63219;DHT22;49320;52.512;13.448;2022-10-26T15:09:28;19.80;73.10
63219;DHT22;49320;52.512;13.448;2022-10-26T15:11:58;19.70;72.70
63219;DHT22;49320;52.512;13.448;2022-10-26T15:14:25;19.80;73.40
63219;DHT22;49320;52.512;13.448;2022-10-26T15:16:54;19.80;73.30
63219;DHT22;49320;52.512;13.448;2022-10-26T15:19:23;19.70;73.10
63219;DHT22;49320;52.512;13.448;2022-10-26T15:21:53;19.60;73.20
63219;DHT22;49320;52.512;13.448;2022-10-26T15:26:46;19.70;73.30
63219;DHT22;49320;52.512;13.448;2022-10-26T15:29:36;19.70;73.30
63219;DHT22;49320;52.512;13.448;2022-10-26T15:32:27;19.70;72.70
63219;DHT22;49320;52.512;13.448;2022-10-26T15:35:22;19.60;72.80
63219;DHT22;49320;52.512;13.448;2022-10-26T15:37:52;19.60;72.80
63219;DHT22;49320;52.512;13.448;2022-10-26T15:40:22;19.50;73.40
63219;DHT22;49320;52.512;13.448;2022-10-26T15:42:57;19.50;73.50
63219;DHT22;49320;52.512;13.448;2022-10-26T15:45:30;19.50;73.50
63219;DHT22;49320;52.512;13.448;2022-10-26T15:47:59;19.50;73.40
63219;DHT22;49320;52.512;13.448;2022-10-26T15:50:43;19.50;73.30
63219;DHT22;49320;52.512;13.448;2022-10-26T15:53:17;19.50;73.80
63219;DHT22;49320;52.512;13.448;2022-10-26T15:55:47;19.40;73.50
63219;DHT22;49320;52.512;13.448;2022-10-26T15:58:16;19.40;73.90
63219;DHT22;49320;52.512;13.448;2022-10-26T16:00:44;19.40;74.00
63219;DHT22;49320;52.512;13.448;2022-10-26T16:03:17;19.40;74.00
63219;DHT22;49320;52.512;13.448;2022-10-26T16:05:50;19.40;73.90
63219;DHT22;49320;52.512;13.448;2022-10-26T16:08:25;19.30;74.00
63219;DHT22;49320;52.512;13.448;2022-10-26T16:10:54;19.30;74.10
63219;DHT22;49320;52.512;13.448;2022-10-26T16:13:21;19.10;74.10
63219;DHT22;49320;52.512;13.448;2022-10-26T16:15:48;19.30;74.30
63219;DHT22;49320;52.512;13.448;2022-10-26T16:18:15;19.20;74.40
63219;DHT22;49320;52.512;13.448;2022-10-26T16:20:44;19.10;74.50
63219;DHT22;49320;52.512;13.448;2022-10-26T16:23:11;19.10;74.50
63219;DHT22;49320;52.512;13.448;2022-10-26T16:25:43;19.00;74.60
63219;DHT22;49320;52.512;13.448;2022-10-26T16:28:13;19.00;74.70
63219;DHT22;49320;52.512;13.448;2022-10-26T16:30:42;19.00;75.00
63219;DHT22;49320;52.512;13.448;2022-10-26T16:33:09;18.90;75.10
63219;DHT22;49320;52.512;13.448;2022-10-26T16:35:36;18.90;75.20
63219;DHT22;49320;52.512;13.448;2022-10-26T16:38:02;18.80;75.40
63219;DHT22;49320;52.512;13.448;2022-10-26T16:40:30;18.80;75.50
63219;DHT22;49320;52.512;13.448;2022-10-26T16:42:57;18.80;75.70
63219;DHT22;49320;52.512;13.448;2022-10-26T16:45:24;18.80;75.80
63219;DHT22;49320;52.512;13.448;2022-10-26T16:47:50;18.80;75.90
63219;DHT22;49320;52.512;13.448;2022-10-26T16:50:17;18.80;76.10
63219;DHT22;49320;52.512;13.448;2022-10-26T16:52:47;18.80;76.20
63219;DHT22;49320;52.512;13.448;2022-10-26T16:55:14;18.80;76.30
63219;DHT22;49320;52.512;13.448;2022-10-26T16:57:41;18.80;76.40
63219;DHT22;49320;52.512;13.448;2022-10-26T17:00:08;18.80;76.40
63219;DHT22;49320;52.512;13.448;2022-10-26T17:02:35;18.80;76.50
63219;DHT22;49320;52.512;13.448;2022-10-26T17:05:02;18.80;76.50
63219;DHT22;49320;52.512;13.448;2022-10-26T17:07:33;18.80;76.60
63219;DHT22;49320;52.512;13.448;2022-10-26T17:10:00;18.80;76.80
63219;DHT22;49320;52.512;13.448;2022-10-26T17:12:27;18.80;76.80
63219;DHT22;49320;52.512;13.448;2022-10-26T17:14:55;18.80;76.90
63219;DHT22;49320;52.512;13.448;2022-10-26T17:17:23;18.80;76.90
63219;DHT22;49320;52.512;13.448;2022-10-26T17:19:50;18.80;76.90
63219;DHT22;49320;52.512;13.448;2022-10-26T17:22:17;18.80;77.00
63219;DHT22;49320;52.512;13.448;2022-10-26T17:24:44;18.80;77.00
63219;DHT22;49320;52.512;13.448;2022-10-26T17:27:11;18.80;77.00
63219;DHT22;49320;52.512;13.448;2022-10-26T17:29:37;18.80;77.10
63219;DHT22;49320;52.512;13.448;2022-10-26T17:32:04;18.80;77.20
63219;DHT22;49320;52.512;13.448;2022-10-26T17:34:31;18.80;77.20